createdAt,value
2018-10-09T03:14:46.258Z,0.00
2018-10-09T03:15:46.254Z,0.00
2018-10-09T03:16:46.206Z,0.00
2018-10-09T03:17:46.214Z,0.00
2018-10-09T03:18:46.282Z,0.00
2018-10-09T03:19:46.132Z,0.00
2018-10-09T03:20:46.194Z,0.00
2018-10-09T03:21:46.138Z,0.00
2018-10-09T03:22:46.123Z,0.00
2018-10-09T03:23:46.116Z,0.00
2018-10-09T03:24:46.126Z,0.00
2018-10-09T03:25:46.118Z,0.00
2018-10-09T03:26:46.111Z,0.00
2018-10-09T03:27:46.091Z,0.00
2018-10-09T03:28:46.106Z,0.00
2018-10-09T03:29:46.079Z,0.00
2018-10-09T03:30:46.100Z,0.00
2018-10-09T03:31:46.093Z,0.00
2018-10-09T03:32:46.065Z,0.00
2018-10-09T03:33:46.061Z,0.00
2018-10-09T03:34:46.095Z,0.00
2018-10-09T03:35:46.075Z,0.00
2018-10-09T03:36:46.054Z,0.00
2018-10-09T03:37:46.066Z,0.00
2018-10-09T03:38:46.038Z,0.00
2018-10-09T03:39:46.051Z,0.00
2018-10-09T03:40:46.098Z,0.00
2018-10-09T03:41:46.043Z,0.00
2018-10-09T03:42:46.028Z,0.00
2018-10-09T03:43:46.052Z,0.00
2018-10-09T03:44:46.073Z,0.00
2018-10-09T03:45:46.078Z,0.00
2018-10-09T03:46:46.012Z,0.00
2018-10-09T03:47:46.048Z,0.00
2018-10-09T03:48:45.998Z,0.00
2018-10-09T03:49:46.028Z,0.00
2018-10-09T03:50:46.043Z,0.00
2018-10-09T03:51:46.004Z,0.00
2018-10-09T03:52:46.028Z,0.00
2018-10-09T03:53:46.005Z,0.00
2018-10-09T03:54:45.984Z,0.00
2018-10-09T03:55:45.981Z,0.00
2018-10-09T03:56:45.984Z,0.00
2018-10-09T03:57:45.965Z,0.00
2018-10-09T03:58:46.005Z,0.00
2018-10-09T03:59:45.976Z,0.00
2018-10-09T04:00:45.983Z,0.00
2018-10-09T04:01:45.976Z,0.00
2018-10-09T04:02:45.949Z,0.00
2018-10-09T04:03:45.937Z,0.00
2018-10-09T04:04:45.968Z,0.00
2018-10-09T04:05:45.961Z,0.00
2018-10-09T04:06:45.954Z,0.00
2018-10-09T04:07:45.950Z,0.00
2018-10-09T04:08:45.954Z,0.00
2018-10-09T04:09:45.958Z,0.00
2018-10-09T04:10:45.928Z,0.00
2018-10-09T04:11:45.941Z,0.00
2018-10-09T04:12:45.981Z,0.00
2018-10-09T04:13:45.917Z,0.00
2018-10-09T04:14:45.934Z,0.00
2018-10-09T04:15:45.912Z,0.00
2018-10-09T04:16:45.914Z,0.00
2018-10-09T04:17:45.892Z,0.00
2018-10-09T04:18:45.953Z,0.00
2018-10-09T04:19:45.878Z,0.00
2018-10-09T04:20:45.931Z,0.00
2018-10-09T04:21:45.899Z,0.00
2018-10-09T04:22:45.905Z,0.00
2018-10-09T04:23:45.910Z,0.00
2018-10-09T04:24:45.911Z,0.00
2018-10-09T04:25:45.895Z,0.00
2018-10-09T04:26:45.867Z,0.00
2018-10-09T04:27:45.851Z,0.00
2018-10-09T04:28:45.841Z,0.00
2018-10-09T04:29:54.565Z,0.00
2018-10-09T04:31:39.313Z,0.00
2018-10-09T04:32:39.285Z,0.00
2018-10-09T04:33:39.268Z,0.00
2018-10-09T04:34:39.380Z,0.00
2018-10-09T04:37:09.034Z,0.00
2018-10-09T04:38:01.266Z,0.00
2018-10-09T04:39:01.296Z,0.00
2018-10-09T04:40:01.233Z,0.00
2018-10-09T04:41:01.254Z,0.00
2018-10-09T04:42:01.209Z,0.00
2018-10-09T04:43:01.241Z,0.00
2018-10-09T04:44:01.204Z,0.00
2018-10-09T04:45:01.249Z,0.00
2018-10-09T04:46:01.193Z,0.00
2018-10-09T04:47:01.209Z,0.00
2018-10-09T04:48:01.191Z,0.00
2018-10-09T04:49:01.219Z,0.00
2018-10-09T04:50:01.211Z,0.00
2018-10-09T04:51:01.178Z,0.00
2018-10-09T04:52:01.223Z,0.00
2018-10-09T04:53:01.242Z,0.00
2018-10-09T04:54:01.177Z,0.00
2018-10-09T04:55:01.160Z,0.00
2018-10-09T04:56:01.152Z,0.00
2018-10-09T04:57:01.173Z,0.00
2018-10-09T04:58:01.160Z,0.00
2018-10-09T04:59:01.172Z,0.00
2018-10-09T05:00:01.170Z,0.00
2018-10-09T05:01:01.158Z,0.00
2018-10-09T05:02:01.143Z,0.00
2018-10-09T05:03:01.188Z,0.00
2018-10-09T05:04:01.144Z,0.00
2018-10-09T05:05:01.194Z,0.00
2018-10-09T05:06:01.228Z,0.00
2018-10-09T05:07:01.200Z,4.00
2018-10-09T05:08:01.148Z,4.00
2018-10-09T05:09:01.198Z,0.00
2018-10-09T05:10:01.136Z,0.00
2018-10-09T05:11:01.164Z,4.00
2018-10-09T05:12:01.137Z,0.00
2018-10-09T05:13:01.178Z,4.00
2018-10-09T05:14:01.130Z,4.00
2018-10-09T05:15:01.093Z,4.00
2018-10-09T05:16:01.131Z,4.00
2018-10-09T05:17:01.068Z,8.00
2018-10-09T05:18:01.067Z,8.00
2018-10-09T05:19:01.065Z,8.00
2018-10-09T05:20:01.088Z,12.00
2018-10-09T05:21:01.049Z,12.00
2018-10-09T05:22:01.089Z,16.00
2018-10-09T05:23:01.048Z,20.00
2018-10-09T05:24:01.063Z,24.00
2018-10-09T05:25:01.063Z,28.00
2018-10-09T05:26:01.103Z,32.00
2018-10-09T05:27:01.034Z,36.00
2018-10-09T05:28:01.026Z,40.00
2018-10-09T05:29:01.043Z,44.00
2018-10-09T05:30:01.016Z,48.00
2018-10-09T05:31:01.033Z,52.00
2018-10-09T05:32:01.016Z,52.00
2018-10-09T05:33:01.002Z,52.00
2018-10-09T05:34:01.001Z,60.00
2018-10-09T05:35:00.996Z,68.00
2018-10-09T05:36:00.995Z,76.00
2018-10-09T05:37:00.983Z,84.00
2018-10-09T05:38:01.014Z,92.00
2018-10-09T05:39:00.996Z,104.00
2018-10-09T05:40:00.993Z,112.00
2018-10-09T05:41:00.991Z,120.00
2018-10-09T05:42:00.970Z,128.00
2018-10-09T05:43:00.958Z,140.00
2018-10-09T05:44:00.974Z,148.00
2018-10-09T05:45:01.004Z,160.00
2018-10-09T05:46:00.957Z,172.00
2018-10-09T05:47:09.696Z,180.00
2018-10-09T05:48:54.461Z,204.00
2018-10-09T05:49:54.408Z,212.00
2018-10-09T05:50:54.344Z,224.00
2018-10-09T05:51:54.439Z,232.00
2018-10-09T05:52:54.333Z,240.00
2018-10-09T05:53:54.324Z,252.00
2018-10-09T05:54:54.334Z,264.00
2018-10-09T05:55:54.306Z,280.00
2018-10-09T05:56:54.320Z,304.00
2018-10-09T05:57:54.388Z,324.00
2018-10-09T05:58:54.292Z,352.00
2018-10-09T05:59:54.340Z,388.00
2018-10-09T06:00:54.306Z,424.00
2018-10-09T06:01:54.320Z,452.00
2018-10-09T06:02:54.272Z,468.00
2018-10-09T06:03:54.293Z,496.00
2018-10-09T06:04:54.266Z,556.00
2018-10-09T06:05:54.320Z,632.00
2018-10-09T06:06:54.269Z,696.00
2018-10-09T06:07:54.310Z,740.00
2018-10-09T06:08:54.301Z,768.00
2018-10-09T06:09:54.276Z,796.00
2018-10-09T06:10:54.264Z,832.00
2018-10-09T06:11:54.241Z,848.00
2018-10-09T06:12:54.243Z,816.00
2018-10-09T06:13:54.225Z,748.00
2018-10-09T06:14:54.212Z,696.00
2018-10-09T06:15:54.295Z,688.00
2018-10-09T06:16:54.257Z,720.00
2018-10-09T06:17:54.211Z,788.00
2018-10-09T06:18:54.228Z,832.00
2018-10-09T06:19:54.219Z,840.00
2018-10-09T06:20:54.226Z,824.00
2018-10-09T06:21:54.192Z,808.00
2018-10-09T06:22:54.217Z,788.00
2018-10-09T06:23:54.174Z,784.00
2018-10-09T06:24:54.177Z,788.00
2018-10-09T06:25:54.221Z,808.00
2018-10-09T06:26:54.189Z,836.00
2018-10-09T06:27:54.289Z,876.00
2018-10-09T06:28:54.161Z,908.00
2018-10-09T06:29:54.169Z,920.00
2018-10-09T06:30:54.190Z,904.00
2018-10-09T06:31:54.151Z,872.00
2018-10-09T06:32:54.163Z,840.00
2018-10-09T06:33:54.138Z,812.00
2018-10-09T06:34:54.143Z,792.00
2018-10-09T06:35:54.159Z,788.00
2018-10-09T06:36:54.133Z,792.00
2018-10-09T06:37:54.195Z,804.00
2018-10-09T06:38:54.146Z,808.00
2018-10-09T06:39:54.169Z,824.00
2018-10-09T06:40:54.118Z,848.00
2018-10-09T06:41:54.100Z,876.00
2018-10-09T06:42:54.232Z,892.00
2018-10-09T06:43:54.154Z,908.00
2018-10-09T06:44:54.092Z,924.00
2018-10-09T06:45:54.106Z,944.00
2018-10-09T06:46:54.100Z,976.00
2018-10-09T06:47:54.095Z,1016.00
2018-10-09T06:48:54.093Z,1060.00
2018-10-09T06:49:54.082Z,1112.00
2018-10-09T06:50:54.071Z,1168.00
2018-10-09T06:51:54.082Z,1236.00
2018-10-09T06:52:54.052Z,1308.00
2018-10-09T06:53:54.296Z,1380.00
2018-10-09T06:54:54.080Z,1420.00
2018-10-09T06:55:54.034Z,1424.00
2018-10-09T06:56:54.057Z,1412.00
2018-10-09T06:57:54.033Z,1380.00
2018-10-09T06:58:54.058Z,1352.00
2018-10-09T06:59:54.033Z,1312.00
2018-10-09T07:00:54.040Z,1296.00
2018-10-09T07:01:54.087Z,1316.00
2018-10-09T07:02:54.051Z,1360.00
2018-10-09T07:03:54.013Z,1356.00
2018-10-09T07:04:54.045Z,1308.00
2018-10-09T07:05:54.009Z,1276.00
2018-10-09T07:06:54.001Z,1292.00
2018-10-09T07:07:54.039Z,1352.00
2018-10-09T07:08:53.987Z,1436.00
2018-10-09T07:09:54.007Z,1540.00
2018-10-09T07:10:54.039Z,1692.00
2018-10-09T07:11:53.976Z,1872.00
2018-10-09T07:12:53.997Z,2048.00
2018-10-09T07:13:53.990Z,2192.00
2018-10-09T07:14:53.974Z,2292.00
2018-10-09T07:15:53.990Z,2316.00
2018-10-09T07:16:53.978Z,2300.00
2018-10-09T07:17:54.058Z,2256.00
2018-10-09T07:18:53.953Z,2200.00
2018-10-09T07:19:53.945Z,2196.00
2018-10-09T07:20:53.966Z,2260.00
2018-10-09T07:21:53.942Z,2328.00
2018-10-09T07:22:53.970Z,2388.00
2018-10-09T07:23:53.936Z,2400.00
2018-10-09T07:25:01.115Z,2400.00
2018-10-09T07:26:48.357Z,2384.00
2018-10-09T07:27:48.381Z,2396.00
2018-10-09T07:28:48.332Z,2404.00
2018-10-09T07:31:09.356Z,2476.00
2018-10-09T07:32:17.989Z,2492.00
2018-10-09T07:34:02.905Z,2512.00
2018-10-09T07:35:02.899Z,2520.00
2018-10-09T07:36:02.802Z,2536.00
2018-10-09T07:37:02.793Z,2552.00
2018-10-09T07:38:02.786Z,2564.00
2018-10-09T07:39:02.742Z,2560.00
2018-10-09T07:40:02.761Z,2556.00
2018-10-09T07:41:02.769Z,2544.00
2018-10-09T07:42:02.759Z,2532.00
2018-10-09T07:43:02.707Z,2520.00
2018-10-09T07:44:02.828Z,2516.00
2018-10-09T07:45:02.697Z,2512.00
2018-10-09T07:46:02.689Z,2508.00
2018-10-09T07:47:02.748Z,2500.00
2018-10-09T07:48:02.704Z,2500.00
2018-10-09T07:49:02.717Z,2496.00
2018-10-09T07:50:02.682Z,2492.00
2018-10-09T07:51:02.685Z,2488.00
2018-10-09T07:52:02.727Z,2476.00
2018-10-09T07:53:02.692Z,2468.00
2018-10-09T07:54:02.694Z,2464.00
2018-10-09T07:55:02.716Z,2460.00
2018-10-09T07:56:02.699Z,2452.00
2018-10-09T07:57:02.721Z,2440.00
2018-10-09T07:58:02.666Z,2428.00
2018-10-09T07:59:02.701Z,2424.00
2018-10-09T08:00:02.687Z,2420.00
2018-10-09T08:01:02.682Z,2416.00
2018-10-09T08:02:02.646Z,2404.00
2018-10-09T08:03:02.672Z,2388.00
2018-10-09T08:04:02.681Z,2380.00
2018-10-09T08:05:02.650Z,2368.00
2018-10-09T08:06:02.664Z,2352.00
2018-10-09T08:07:02.692Z,2344.00
2018-10-09T08:08:02.632Z,2336.00
2018-10-09T08:09:02.655Z,2332.00
2018-10-09T08:10:02.673Z,2324.00
2018-10-09T08:11:02.627Z,2320.00
2018-10-09T08:12:02.648Z,2312.00
2018-10-09T08:13:02.614Z,2304.00
2018-10-09T08:14:02.611Z,2292.00
2018-10-09T08:15:02.608Z,2276.00
2018-10-09T08:16:02.613Z,2264.00
2018-10-09T08:17:02.597Z,2256.00
2018-10-09T08:18:02.600Z,2248.00
2018-10-09T08:19:02.603Z,2240.00
2018-10-09T08:20:02.600Z,2228.00
2018-10-09T08:21:02.596Z,2216.00
2018-10-09T08:22:02.592Z,2200.00
2018-10-09T08:23:02.610Z,2196.00
2018-10-09T08:24:02.588Z,2160.00
2018-10-09T08:25:02.586Z,2136.00
2018-10-09T08:26:02.602Z,2140.00
2018-10-09T08:27:02.577Z,2128.00
2018-10-09T08:28:02.663Z,2144.00
2018-10-09T08:29:02.578Z,2132.00
2018-10-09T08:30:02.574Z,2092.00
2018-10-09T08:31:02.578Z,2032.00
2018-10-09T08:32:02.607Z,2032.00
2018-10-09T08:33:02.568Z,2004.00
2018-10-09T08:34:02.562Z,1952.00
2018-10-09T08:35:02.578Z,1920.00
2018-10-09T08:36:02.548Z,1928.00
2018-10-09T08:37:02.555Z,1968.00
2018-10-09T08:38:02.571Z,2052.00
2018-10-09T08:39:02.561Z,2088.00
2018-10-09T08:40:02.626Z,2092.00
2018-10-09T08:41:02.562Z,2084.00
2018-10-09T08:42:02.546Z,2092.00
2018-10-09T08:43:02.537Z,2088.00
2018-10-09T08:44:02.546Z,2092.00
2018-10-09T08:45:02.536Z,2092.00
2018-10-09T08:46:02.566Z,2088.00
2018-10-09T08:47:02.526Z,2088.00
2018-10-09T08:48:02.529Z,2088.00
2018-10-09T08:49:02.519Z,2088.00
2018-10-09T08:50:02.525Z,2080.00
2018-10-09T08:51:02.547Z,2076.00
2018-10-09T08:52:02.616Z,2072.00
2018-10-09T08:53:02.513Z,2068.00
2018-10-09T08:54:02.512Z,2060.00
2018-10-09T08:55:02.548Z,2056.00
2018-10-09T08:56:02.517Z,2036.00
2018-10-09T08:57:02.539Z,1996.00
2018-10-09T08:58:02.519Z,1936.00
2018-10-09T08:59:02.534Z,1876.00
2018-10-09T09:00:02.527Z,1868.00
2018-10-09T09:01:02.500Z,1948.00
2018-10-09T09:02:02.495Z,1964.00
2018-10-09T09:03:02.514Z,1992.00
2018-10-09T09:04:02.496Z,2008.00
2018-10-09T09:05:02.503Z,2008.00
2018-10-09T09:06:02.489Z,2012.00
2018-10-09T09:07:02.492Z,2008.00
2018-10-09T09:08:02.506Z,2008.00
2018-10-09T09:09:02.492Z,2004.00
2018-10-09T09:10:02.489Z,2000.00
2018-10-09T09:11:02.482Z,1992.00
2018-10-09T09:12:02.483Z,1988.00
2018-10-09T09:13:02.487Z,1980.00
2018-10-09T09:14:02.558Z,1976.00
2018-10-09T09:15:02.479Z,1972.00
2018-10-09T09:16:02.481Z,1968.00
2018-10-09T09:17:02.471Z,1964.00
2018-10-09T09:18:02.478Z,1964.00
2018-10-09T09:19:02.466Z,1964.00
2018-10-09T09:20:02.471Z,1964.00
2018-10-09T09:21:02.540Z,1960.00
2018-10-09T09:22:02.461Z,1956.00
2018-10-09T09:23:02.486Z,1952.00
2018-10-09T09:24:02.478Z,1940.00
2018-10-09T09:25:02.460Z,1924.00
2018-10-09T09:26:02.520Z,1900.00
2018-10-09T09:27:02.573Z,1860.00
2018-10-09T09:28:02.462Z,1836.00
2018-10-09T09:29:02.450Z,1832.00
2018-10-09T09:30:02.454Z,1848.00
2018-10-09T09:31:02.457Z,1856.00
2018-10-09T09:32:02.452Z,1856.00
2018-10-09T09:33:02.503Z,1856.00
2018-10-09T09:34:02.441Z,1856.00
2018-10-09T09:35:02.453Z,1868.00
2018-10-09T09:36:02.476Z,1884.00
2018-10-09T09:37:02.434Z,1908.00
2018-10-09T09:38:02.462Z,1920.00
2018-10-09T09:39:02.470Z,1944.00
2018-10-09T09:40:02.438Z,1952.00
2018-10-09T09:41:02.435Z,1956.00
2018-10-09T09:42:02.437Z,1952.00
2018-10-09T09:43:02.443Z,1956.00
2018-10-09T09:44:02.431Z,1952.00
2018-10-09T09:45:02.429Z,1964.00
2018-10-09T09:46:02.480Z,1976.00
2018-10-09T09:47:02.454Z,1980.00
2018-10-09T09:48:02.429Z,1980.00
2018-10-09T09:49:02.441Z,1984.00
2018-10-09T09:50:02.427Z,1980.00
2018-10-09T09:51:02.427Z,1984.00
2018-10-09T09:52:02.490Z,1980.00
2018-10-09T09:53:02.425Z,1980.00
2018-10-09T09:54:02.423Z,1976.00
2018-10-09T09:55:02.417Z,1976.00
2018-10-09T09:56:02.419Z,1984.00
2018-10-09T09:57:02.415Z,1984.00
2018-10-09T09:58:02.558Z,1988.00
2018-10-09T09:59:02.559Z,1988.00
2018-10-09T10:00:02.419Z,1984.00
2018-10-09T10:01:02.432Z,1984.00
2018-10-09T10:02:02.413Z,1980.00
2018-10-09T10:03:02.417Z,1996.00
2018-10-09T10:04:02.422Z,2004.00
2018-10-09T10:05:02.413Z,2024.00
2018-10-09T10:06:02.419Z,2028.00
2018-10-09T10:07:02.423Z,2004.00
2018-10-09T10:08:02.424Z,1960.00
2018-10-09T10:09:02.416Z,1920.00
2018-10-09T10:10:02.412Z,1868.00
2018-10-09T10:11:02.416Z,1836.00
2018-10-09T10:12:02.406Z,1844.00
2018-10-09T10:13:02.413Z,1892.00
2018-10-09T10:14:02.402Z,1920.00
2018-10-09T10:15:02.414Z,1912.00
2018-10-09T10:16:02.408Z,1892.00
2018-10-09T10:17:02.430Z,1280.00
2018-10-09T10:18:11.034Z,1340.00
2018-10-09T10:19:55.869Z,1324.00
2018-10-09T10:20:55.817Z,1344.00
2018-10-09T10:21:55.812Z,1352.00
2018-10-09T10:22:55.816Z,1336.00
2018-10-09T10:25:16.859Z,1344.00
2018-10-09T10:26:25.469Z,1300.00
2018-10-09T10:27:16.864Z,1392.00
2018-10-09T10:28:16.839Z,1364.00
2018-10-09T10:29:16.913Z,1320.00
2018-10-09T10:30:16.842Z,1392.00
2018-10-09T10:31:16.862Z,1260.00
2018-10-09T10:32:16.840Z,1268.00
2018-10-09T10:33:16.839Z,1272.00
2018-10-09T10:34:16.836Z,1264.00
2018-10-09T10:35:16.835Z,1312.00
2018-10-09T10:36:16.836Z,1308.00
2018-10-09T10:37:16.850Z,1376.00
2018-10-09T10:38:16.840Z,1312.00
2018-10-09T10:39:16.841Z,1272.00
2018-10-09T10:40:16.839Z,1368.00
2018-10-09T10:41:16.836Z,1412.00
2018-10-09T10:42:16.914Z,1404.00
2018-10-09T10:43:16.835Z,1500.00
2018-10-09T10:44:16.834Z,1448.00
2018-10-09T10:45:16.844Z,1456.00
2018-10-09T10:46:16.832Z,1468.00
2018-10-09T10:47:16.841Z,1460.00
2018-10-09T10:48:16.834Z,1552.00
2018-10-09T10:49:16.890Z,1616.00
2018-10-09T10:50:16.858Z,1516.00
2018-10-09T10:51:16.832Z,1600.00
2018-10-09T10:52:16.830Z,1608.00
2018-10-09T10:53:16.838Z,1580.00
2018-10-09T10:54:16.836Z,1592.00
2018-10-09T10:55:16.834Z,1540.00
2018-10-09T10:56:16.860Z,1592.00
2018-10-09T10:57:16.834Z,1584.00
2018-10-09T10:58:16.852Z,1316.00
2018-10-09T10:59:17.026Z,1612.00
2018-10-09T11:00:25.467Z,1668.00
2018-10-09T11:02:10.261Z,1692.00
2018-10-09T11:03:10.220Z,1652.00
2018-10-09T11:04:10.224Z,1680.00
2018-10-09T11:05:10.224Z,1676.00
2018-10-09T11:06:10.245Z,1696.00
2018-10-09T11:07:10.313Z,1832.00
2018-10-09T11:08:10.268Z,1632.00
2018-10-09T11:09:10.224Z,1420.00
2018-10-09T11:10:10.236Z,1584.00
2018-10-09T11:11:10.230Z,1552.00
2018-10-09T11:12:10.235Z,1552.00
2018-10-09T11:13:10.226Z,1512.00
2018-10-09T11:14:10.224Z,1592.00
2018-10-09T11:15:10.283Z,1460.00
2018-10-09T11:16:10.228Z,1448.00
2018-10-09T11:17:10.238Z,1468.00
2018-10-09T11:18:10.237Z,1388.00
2018-10-09T11:19:10.220Z,1444.00
2018-10-09T11:20:10.227Z,1456.00
2018-10-09T11:21:10.326Z,1500.00
2018-10-09T11:22:10.236Z,1516.00
2018-10-09T11:23:10.233Z,1512.00
2018-10-09T11:24:10.237Z,1480.00
2018-10-09T11:25:10.231Z,1388.00
2018-10-09T11:26:10.243Z,1520.00
2018-10-09T11:27:10.239Z,1580.00
2018-10-09T11:28:10.238Z,1548.00
2018-10-09T11:29:10.234Z,1540.00
2018-10-09T11:30:10.233Z,1628.00
2018-10-09T11:31:10.291Z,1532.00
2018-10-09T11:32:10.235Z,1508.00
2018-10-09T11:33:10.273Z,1504.00
2018-10-09T11:34:10.243Z,1488.00
2018-10-09T11:35:10.250Z,1480.00
2018-10-09T11:36:10.283Z,1540.00
2018-10-09T11:37:10.252Z,1512.00
2018-10-09T11:38:10.271Z,1500.00
2018-10-09T11:39:10.242Z,1632.00
2018-10-09T11:40:10.253Z,1572.00
2018-10-09T11:41:10.245Z,1568.00
2018-10-09T11:42:10.259Z,1504.00
2018-10-09T11:43:10.263Z,1564.00
2018-10-09T11:44:10.316Z,1564.00
2018-10-09T11:45:10.246Z,1476.00
2018-10-09T11:46:10.271Z,1564.00
2018-10-09T11:47:10.268Z,1564.00
2018-10-09T11:48:10.253Z,1556.00
2018-10-09T11:49:10.255Z,1556.00
2018-10-09T11:50:10.255Z,1556.00
2018-10-09T11:51:10.273Z,1572.00
2018-10-09T11:52:10.268Z,1576.00
2018-10-09T11:53:10.281Z,1656.00
2018-10-09T11:54:10.274Z,1552.00
2018-10-09T11:55:10.257Z,1508.00
2018-10-09T11:56:10.264Z,1524.00
2018-10-09T11:57:10.262Z,1532.00
2018-10-09T11:58:10.266Z,1500.00
2018-10-09T11:59:10.351Z,1512.00
2018-10-09T12:00:10.265Z,1508.00
2018-10-09T12:01:10.264Z,1552.00
2018-10-09T12:02:10.279Z,1592.00
2018-10-09T12:03:10.275Z,1672.00
2018-10-09T12:04:10.276Z,1556.00
2018-10-09T12:05:10.269Z,1384.00
2018-10-09T12:06:10.271Z,1568.00
2018-10-09T12:07:10.277Z,1572.00
2018-10-09T12:08:10.302Z,1592.00
2018-10-09T12:09:10.282Z,1600.00
2018-10-09T12:10:10.287Z,1564.00
2018-10-09T12:11:10.278Z,1536.00
2018-10-09T12:12:10.303Z,1764.00
2018-10-09T12:13:10.294Z,1604.00
2018-10-09T12:14:10.289Z,1532.00
2018-10-09T12:15:10.289Z,1640.00
2018-10-09T12:16:10.295Z,1780.00
2018-10-09T12:17:10.297Z,1652.00
2018-10-09T12:18:10.297Z,1628.00
2018-10-09T12:19:10.300Z,1812.00
2018-10-09T12:20:10.326Z,1856.00
2018-10-09T12:21:10.308Z,1512.00
2018-10-09T12:22:10.297Z,1620.00
2018-10-09T12:23:10.305Z,1424.00
2018-10-09T12:24:10.301Z,1368.00
2018-10-09T12:25:10.336Z,1276.00
2018-10-09T12:26:10.306Z,1272.00
2018-10-09T12:27:10.357Z,1300.00
2018-10-09T12:28:10.319Z,1440.00
2018-10-09T12:29:10.321Z,1388.00
2018-10-09T12:30:10.317Z,1284.00
2018-10-09T12:31:10.329Z,1248.00
2018-10-09T12:32:10.325Z,1268.00
2018-10-09T12:33:10.347Z,1212.00
2018-10-09T12:34:10.323Z,1264.00
2018-10-09T12:35:10.352Z,1392.00
2018-10-09T12:36:10.322Z,1392.00
2018-10-09T12:37:10.323Z,1252.00
2018-10-09T12:38:10.392Z,1388.00
2018-10-09T12:39:10.335Z,1532.00
2018-10-09T12:40:10.336Z,1364.00
2018-10-09T12:41:10.339Z,1288.00
2018-10-09T12:42:10.342Z,1320.00
2018-10-09T12:43:10.339Z,1284.00
2018-10-09T12:44:10.383Z,1488.00
2018-10-09T12:45:10.348Z,1436.00
2018-10-09T12:46:10.351Z,1416.00
2018-10-09T12:47:10.348Z,1304.00
2018-10-09T12:48:10.361Z,1300.00
2018-10-09T12:49:10.357Z,1532.00
2018-10-09T12:50:10.373Z,1440.00
2018-10-09T12:51:10.383Z,1508.00
2018-10-09T12:52:10.358Z,1296.00
2018-10-09T12:53:10.360Z,1404.00
2018-10-09T12:54:10.372Z,1380.00
2018-10-09T12:55:10.394Z,1384.00
2018-10-09T12:56:10.372Z,1404.00
2018-10-09T12:57:10.527Z,1328.00
2018-10-09T12:58:10.371Z,1428.00
2018-10-09T12:59:10.476Z,1392.00
2018-10-09T13:00:10.374Z,1456.00
2018-10-09T13:01:10.382Z,1352.00
2018-10-09T13:02:10.379Z,1560.00
2018-10-09T13:03:10.537Z,1352.00
2018-10-09T13:04:10.387Z,1312.00
2018-10-09T13:05:10.386Z,1460.00
2018-10-09T13:06:10.387Z,1352.00
2018-10-09T13:07:10.392Z,1328.00
2018-10-09T13:08:10.401Z,1300.00
2018-10-09T13:09:10.398Z,1288.00
2018-10-09T13:10:10.409Z,1328.00
2018-10-09T13:11:10.411Z,1284.00
2018-10-09T13:12:10.429Z,1384.00
2018-10-09T13:13:10.407Z,1296.00
2018-10-09T13:14:10.415Z,1188.00
2018-10-09T13:15:10.411Z,1184.00
2018-10-09T13:16:10.417Z,1176.00
2018-10-09T13:17:10.461Z,1152.00
2018-10-09T13:18:10.420Z,1316.00
2018-10-09T13:19:10.428Z,1216.00
2018-10-09T13:20:10.436Z,1120.00
2018-10-09T13:21:10.607Z,1252.00
2018-10-09T13:22:10.764Z,1160.00
2018-10-09T13:23:19.070Z,1096.00
2018-10-09T13:25:03.848Z,1132.00
2018-10-09T13:26:03.833Z,1136.00
2018-10-09T13:27:03.865Z,1180.00
2018-10-09T13:28:03.853Z,1108.00
2018-10-09T13:29:03.838Z,1100.00
2018-10-09T13:30:03.849Z,1184.00
2018-10-09T13:31:03.914Z,1064.00
2018-10-09T13:32:03.852Z,1036.00
2018-10-09T13:33:03.852Z,1064.00
2018-10-09T13:34:13.454Z,1080.00
2018-10-09T13:35:57.282Z,1152.00
2018-10-09T13:36:57.260Z,1076.00
2018-10-09T13:37:57.275Z,1132.00
2018-10-09T13:38:57.261Z,972.00
2018-10-09T13:39:57.264Z,968.00
2018-10-09T13:40:57.308Z,1096.00
2018-10-09T13:41:57.272Z,932.00
2018-10-09T13:42:57.268Z,1032.00
2018-10-09T13:43:57.342Z,1020.00
2018-10-09T13:44:57.275Z,1084.00
2018-10-09T13:45:57.274Z,936.00
2018-10-09T13:46:57.274Z,964.00
2018-10-09T13:47:57.295Z,960.00
2018-10-09T13:48:57.283Z,1040.00
2018-10-09T13:49:57.293Z,964.00
2018-10-09T13:50:57.331Z,972.00
2018-10-09T13:51:57.306Z,940.00
2018-10-09T13:52:57.295Z,860.00
2018-10-09T13:53:57.312Z,896.00
2018-10-09T13:54:57.298Z,904.00
2018-10-09T13:55:57.300Z,920.00
2018-10-09T13:56:57.302Z,868.00
2018-10-09T13:57:57.321Z,836.00
2018-10-09T13:58:57.311Z,916.00
2018-10-09T13:59:57.306Z,856.00
2018-10-09T14:00:57.314Z,1044.00
2018-10-09T14:01:57.317Z,952.00
2018-10-09T14:02:57.371Z,904.00
2018-10-09T14:03:57.322Z,992.00
2018-10-09T14:04:57.319Z,884.00
2018-10-09T14:05:57.351Z,1004.00
2018-10-09T14:06:57.333Z,896.00
2018-10-09T14:07:57.323Z,856.00
2018-10-09T14:08:57.329Z,964.00
2018-10-09T14:09:57.337Z,920.00
2018-10-09T14:10:57.336Z,944.00
2018-10-09T14:11:57.349Z,872.00
2018-10-09T14:12:57.368Z,864.00
2018-10-09T14:13:57.342Z,880.00
2018-10-09T14:14:57.361Z,876.00
2018-10-09T14:15:57.352Z,912.00
2018-10-09T14:16:57.360Z,880.00
2018-10-09T14:17:57.353Z,868.00
2018-10-09T14:18:57.358Z,936.00
2018-10-09T14:19:57.359Z,932.00
2018-10-09T14:20:57.369Z,920.00
2018-10-09T14:21:57.368Z,912.00
2018-10-09T14:22:57.468Z,904.00
2018-10-09T14:23:57.366Z,884.00
2018-10-09T14:24:57.374Z,904.00
2018-10-09T14:25:57.365Z,1004.00
2018-10-09T14:26:57.378Z,896.00
2018-10-09T14:27:57.379Z,948.00
2018-10-09T14:28:57.388Z,868.00
2018-10-09T14:29:57.403Z,1024.00
2018-10-09T14:30:57.394Z,676.00
2018-10-09T14:31:57.410Z,992.00
2018-10-09T14:32:57.392Z,1068.00
2018-10-09T14:33:57.392Z,960.00
2018-10-09T14:34:57.470Z,944.00
2018-10-09T14:35:57.398Z,956.00
2018-10-09T14:36:57.403Z,1048.00
2018-10-09T14:37:57.405Z,1048.00
2018-10-09T14:38:57.402Z,948.00
2018-10-09T14:39:57.408Z,976.00
2018-10-09T14:40:57.413Z,984.00
2018-10-09T14:41:57.410Z,984.00
2018-10-09T14:42:57.417Z,964.00
2018-10-09T14:43:57.459Z,976.00
2018-10-09T14:44:57.424Z,976.00
2018-10-09T14:45:57.422Z,956.00
2018-10-09T14:46:57.432Z,1048.00
2018-10-09T14:47:57.427Z,972.00
2018-10-09T14:48:57.448Z,968.00
2018-10-09T14:49:57.428Z,1004.00
2018-10-09T14:50:57.439Z,1084.00
2018-10-09T14:51:57.434Z,1060.00
2018-10-09T14:52:57.453Z,944.00
2018-10-09T14:53:57.450Z,984.00
2018-10-09T14:54:57.443Z,920.00
2018-10-09T14:55:57.453Z,1008.00
2018-10-09T14:56:57.467Z,920.00
2018-10-09T14:57:57.454Z,856.00
2018-10-09T14:58:57.453Z,1056.00
2018-10-09T14:59:57.459Z,852.00
2018-10-09T15:00:57.460Z,856.00
2018-10-09T15:01:57.471Z,872.00
2018-10-09T15:02:57.461Z,932.00
2018-10-09T15:03:57.478Z,928.00
2018-10-09T15:04:57.470Z,864.00
2018-10-09T15:05:57.482Z,812.00
2018-10-09T15:06:57.470Z,820.00
2018-10-09T15:07:57.475Z,844.00
2018-10-09T15:08:57.480Z,816.00
2018-10-09T15:09:57.483Z,764.00
2018-10-09T15:10:57.488Z,748.00
2018-10-09T15:11:57.500Z,748.00
2018-10-09T15:12:57.508Z,712.00
2018-10-09T15:13:57.491Z,684.00
2018-10-09T15:14:57.494Z,716.00
2018-10-09T15:15:57.504Z,676.00
2018-10-09T15:16:57.567Z,624.00
2018-10-09T15:17:57.519Z,608.00
2018-10-09T15:18:57.523Z,616.00
2018-10-09T15:19:57.511Z,576.00
2018-10-09T15:20:57.516Z,684.00
2018-10-09T15:21:57.525Z,628.00
2018-10-09T15:22:57.538Z,584.00
2018-10-09T15:23:57.523Z,592.00
2018-10-09T15:24:57.524Z,556.00
2018-10-09T15:25:57.528Z,556.00
2018-10-09T15:26:57.541Z,552.00
2018-10-09T15:27:57.530Z,548.00
2018-10-09T15:28:57.537Z,476.00
2018-10-09T15:29:57.546Z,504.00
2018-10-09T15:30:57.534Z,508.00
2018-10-09T15:31:57.539Z,532.00
2018-10-09T15:32:57.545Z,528.00
2018-10-09T15:33:57.540Z,504.00
2018-10-09T15:34:57.561Z,500.00
2018-10-09T15:35:57.556Z,480.00
2018-10-09T15:36:57.559Z,464.00
2018-10-09T15:37:57.564Z,464.00
2018-10-09T15:38:57.565Z,512.00
2018-10-09T15:39:57.562Z,476.00
2018-10-09T15:40:57.625Z,472.00
2018-10-09T15:41:57.568Z,440.00
2018-10-09T15:42:57.573Z,444.00
2018-10-09T15:43:57.582Z,420.00
2018-10-09T15:44:57.579Z,404.00
2018-10-09T15:45:57.585Z,336.00
2018-10-09T15:46:57.588Z,400.00
2018-10-09T15:47:57.590Z,376.00
2018-10-09T15:48:57.595Z,376.00